Time;durP1;ratioP1;P1;durP2;ratioP2;P2;SDS_P1;SDS_P2;PMS_P1;PMS_P2;Temp;Humidity;BMP_temperature;BMP_pressure;BME280_temperature;BME280_humidity;BME280_pressure;Samples;Min_cycle;Max_cycle;Signal;HPM_P1;HPM_P2
2022/04/14 00:01:41;;;;;;;;;;;21.40;99.90;;;;;;5067105;28;20423;-61
2022/04/14 00:04:08;;;;;;;;;;;21.40;99.90;;;;;;5061023;28;19920;-58
2022/04/14 00:06:35;;;;;;;;;;;21.30;99.90;;;;;;5065961;28;19924;-60
2022/04/14 00:09:02;;;;;;;;;;;21.30;99.90;;;;;;5067922;28;20333;-60
2022/04/14 00:11:29;;;;;;;;;;;21.30;99.90;;;;;;5058511;28;19921;-61
2022/04/14 00:13:56;;;;;;;;;;;21.30;99.90;;;;;;5063439;28;19920;-61
2022/04/14 00:16:24;;;;;;;;;;;21.30;99.90;;;;;;5065349;28;19925;-61
2022/04/14 00:18:51;;;;;;;;;;;21.30;99.90;;;;;;5064688;28;20297;-62
2022/04/14 00:21:18;;;;;;;;;;;21.30;99.90;;;;;;5067271;28;19931;-61
2022/04/14 00:23:45;;;;;;;;;;;21.30;99.90;;;;;;5065009;28;19928;-63
2022/04/14 00:26:12;;;;;;;;;;;21.30;99.90;;;;;;5048207;28;19928;-62
2022/04/14 00:28:39;;;;;;;;;;;21.30;99.90;;;;;;5061977;28;19943;-62
2022/04/14 00:31:06;;;;;;;;;;;21.30;99.90;;;;;;5066595;28;19924;-62
2022/04/14 00:33:33;;;;;;;;;;;21.30;99.90;;;;;;5064099;28;19924;-62
2022/04/14 00:36:01;;;;;;;;;;;21.30;99.90;;;;;;5062584;28;19999;-62
2022/04/14 00:38:28;;;;;;;;;;;21.30;99.90;;;;;;5065444;28;19924;-61
2022/04/14 00:40:55;;;;;;;;;;;21.30;99.90;;;;;;5064029;28;19924;-61
2022/04/14 00:43:32;;;;;;;;;;;21.30;99.90;;;;;;5059174;28;19924;-61
2022/04/14 00:46:00;;;;;;;;;;;21.30;99.90;;;;;;5064149;28;20379;-60
2022/04/14 00:48:27;;;;;;;;;;;21.30;99.90;;;;;;5067611;28;19932;-61
2022/04/14 00:50:55;;;;;;;;;;;21.30;99.90;;;;;;5064419;28;19924;-61
2022/04/14 00:53:22;;;;;;;;;;;21.30;99.90;;;;;;5066840;28;19936;-60
2022/04/14 00:55:50;;;;;;;;;;;21.30;99.90;;;;;;5051899;28;19931;-61
2022/04/14 00:58:18;;;;;;;;;;;21.30;99.90;;;;;;5048782;28;20506;-60
2022/04/14 01:00:45;;;;;;;;;;;21.30;99.90;;;;;;5067724;28;19936;-60
2022/04/14 01:03:13;;;;;;;;;;;21.30;99.90;;;;;;5068210;28;19924;-61
2022/04/14 01:05:40;;;;;;;;;;;21.30;99.90;;;;;;5057611;28;19932;-61
2022/04/14 01:08:07;;;;;;;;;;;21.30;99.90;;;;;;5062793;28;19931;-61
2022/04/14 01:10:35;;;;;;;;;;;21.30;99.90;;;;;;5060566;28;19933;-62
2022/04/14 01:13:02;;;;;;;;;;;21.30;99.90;;;;;;5060936;28;19927;-60
2022/04/14 01:15:31;;;;;;;;;;;21.30;99.90;;;;;;5066864;28;19935;-61
2022/04/14 01:17:59;;;;;;;;;;;21.30;99.90;;;;;;5067416;28;19924;-62
2022/04/14 01:20:26;;;;;;;;;;;21.30;99.90;;;;;;5060244;28;19931;-60
2022/04/14 01:22:56;;;;;;;;;;;21.30;99.90;;;;;;5065615;28;20396;-61
2022/04/14 01:25:25;;;;;;;;;;;21.30;99.90;;;;;;5059900;28;19924;-61
2022/04/14 01:27:52;;;;;;;;;;;21.30;99.90;;;;;;5064370;28;19932;-62
2022/04/14 01:30:20;;;;;;;;;;;21.30;99.90;;;;;;5049229;28;19924;-62
2022/04/14 01:32:48;;;;;;;;;;;21.30;99.90;;;;;;5060295;28;19920;-61
2022/04/14 01:35:15;;;;;;;;;;;21.30;99.90;;;;;;5061371;28;19943;-61
2022/04/14 01:37:42;;;;;;;;;;;21.30;99.90;;;;;;5063168;28;19924;-61
2022/04/14 01:40:10;;;;;;;;;;;21.20;99.90;;;;;;5054161;28;19924;-61
2022/04/14 01:42:37;;;;;;;;;;;21.30;99.90;;;;;;5053042;28;20115;-61
2022/04/14 01:45:10;;;;;;;;;;;21.30;99.90;;;;;;5060233;28;19927;-62
2022/04/14 01:47:38;;;;;;;;;;;21.30;99.90;;;;;;5054278;28;19931;-61
2022/04/14 01:50:07;;;;;;;;;;;21.30;99.90;;;;;;5065970;28;19927;-60
2022/04/14 01:52:34;;;;;;;;;;;21.30;99.90;;;;;;5058593;28;20405;-61
2022/04/14 01:55:03;;;;;;;;;;;21.20;99.90;;;;;;5060133;28;20404;-61
2022/04/14 01:57:30;;;;;;;;;;;21.30;99.90;;;;;;5059586;28;20405;-61
2022/04/14 02:00:01;;;;;;;;;;;21.30;99.90;;;;;;5064105;28;19931;-61
2022/04/14 02:02:30;;;;;;;;;;;21.30;99.90;;;;;;5059736;28;19928;-59
2022/04/14 02:04:57;;;;;;;;;;;21.20;99.90;;;;;;5062938;28;20401;-62
2022/04/14 02:07:25;;;;;;;;;;;21.20;99.90;;;;;;5060566;28;19931;-60
2022/04/14 02:09:52;;;;;;;;;;;21.20;99.90;;;;;;5066274;28;20386;-61
2022/04/14 02:12:19;;;;;;;;;;;21.20;99.90;;;;;;5061159;28;20321;-60
2022/04/14 02:14:46;;;;;;;;;;;21.30;99.90;;;;;;5063806;28;19925;-61
2022/04/14 02:17:13;;;;;;;;;;;21.20;99.90;;;;;;5061792;28;19928;-60
2022/04/14 02:19:40;;;;;;;;;;;21.20;99.90;;;;;;5060655;28;20475;-59
2022/04/14 02:22:07;;;;;;;;;;;21.20;99.90;;;;;;5057717;28;19947;-61
2022/04/14 02:24:34;;;;;;;;;;;21.20;99.90;;;;;;5064367;28;20337;-60
2022/04/14 02:27:02;;;;;;;;;;;21.20;99.90;;;;;;5059839;28;19940;-61
2022/04/14 02:29:29;;;;;;;;;;;21.20;99.90;;;;;;5062310;28;19924;-59
2022/04/14 02:31:57;;;;;;;;;;;21.20;99.90;;;;;;5067387;28;19924;-60
2022/04/14 02:34:26;;;;;;;;;;;21.20;99.90;;;;;;5047825;28;19924;-59
2022/04/14 02:36:54;;;;;;;;;;;21.20;99.90;;;;;;5066382;28;19942;-60
2022/04/14 02:39:21;;;;;;;;;;;21.20;99.90;;;;;;5061074;28;19928;-60
2022/04/14 02:41:48;;;;;;;;;;;21.20;99.90;;;;;;5043567;28;19920;-60
2022/04/14 02:44:15;;;;;;;;;;;21.20;99.90;;;;;;5062194;28;19924;-62
2022/04/14 02:46:42;;;;;;;;;;;21.20;99.90;;;;;;5063822;28;20397;-61
2022/04/14 02:49:09;;;;;;;;;;;21.20;99.90;;;;;;5041142;28;19931;-60
2022/04/14 02:51:36;;;;;;;;;;;21.20;99.90;;;;;;5060517;28;19932;-62
2022/04/14 02:54:03;;;;;;;;;;;21.20;99.90;;;;;;5065088;28;19939;-60
2022/04/14 02:56:31;;;;;;;;;;;21.20;99.90;;;;;;5060558;28;20452;-61
2022/04/14 02:58:58;;;;;;;;;;;21.20;99.90;;;;;;5065672;28;19932;-61
2022/04/14 03:01:25;;;;;;;;;;;21.20;99.90;;;;;;5056496;28;19932;-61
2022/04/14 03:03:52;;;;;;;;;;;21.20;99.90;;;;;;5062825;28;19931;-61
2022/04/14 03:06:19;;;;;;;;;;;21.20;99.90;;;;;;5063110;28;19943;-59
2022/04/14 03:08:46;;;;;;;;;;;21.10;99.90;;;;;;5058409;28;19924;-61
2022/04/14 03:11:13;;;;;;;;;;;21.10;99.90;;;;;;5064770;28;20278;-60
2022/04/14 03:13:42;;;;;;;;;;;21.10;99.90;;;;;;5056954;28;20289;-61
2022/04/14 03:16:09;;;;;;;;;;;21.10;99.90;;;;;;5047797;28;19954;-59
2022/04/14 03:18:37;;;;;;;;;;;21.10;99.90;;;;;;5063984;28;19931;-61
2022/04/14 03:21:04;;;;;;;;;;;21.10;99.90;;;;;;5058528;28;20039;-61
2022/04/14 03:23:31;;;;;;;;;;;21.10;99.90;;;;;;5052234;28;19925;-59
2022/04/14 03:25:58;;;;;;;;;;;21.10;99.90;;;;;;5060874;28;20483;-61
2022/04/14 03:28:25;;;;;;;;;;;21.10;99.90;;;;;;5055611;28;20339;-62
2022/04/14 03:30:57;;;;;;;;;;;21.10;99.90;;;;;;5044330;28;19925;-61
2022/04/14 03:33:25;;;;;;;;;;;21.10;99.90;;;;;;5064085;28;19924;-62
2022/04/14 03:35:52;;;;;;;;;;;21.10;99.90;;;;;;5067162;28;19925;-61
2022/04/14 03:38:19;;;;;;;;;;;21.10;99.90;;;;;;5067119;28;20405;-61
2022/04/14 03:41:04;;;;;;;;;;;21.10;99.90;;;;;;5067479;28;20408;-62
2022/04/14 03:43:35;;;;;;;;;;;21.10;99.90;;;;;;5061947;28;19931;-60
2022/04/14 03:46:02;;;;;;;;;;;21.10;99.90;;;;;;5062880;28;20416;-61
2022/04/14 03:48:30;;;;;;;;;;;21.10;99.90;;;;;;5061073;28;20393;-62
2022/04/14 03:50:57;;;;;;;;;;;21.10;99.90;;;;;;5056812;28;19925;-62
2022/04/14 03:53:24;;;;;;;;;;;21.10;99.90;;;;;;5066509;28;19924;-62
2022/04/14 03:55:51;;;;;;;;;;;21.10;99.90;;;;;;5064390;28;19931;-60
2022/04/14 03:58:18;;;;;;;;;;;21.10;99.90;;;;;;5064666;28;20423;-61
2022/04/14 04:00:45;;;;;;;;;;;21.20;99.90;;;;;;5061786;28;19939;-63
2022/04/14 04:03:13;;;;;;;;;;;21.30;99.90;;;;;;5056025;28;19931;-62
2022/04/14 04:05:40;;;;;;;;;;;21.40;99.90;;;;;;5066378;28;20301;-61
2022/04/14 04:08:08;;;;;;;;;;;21.60;99.90;;;;;;5055804;28;20203;-63
2022/04/14 04:10:35;;;;;;;;;;;21.70;99.90;;;;;;5065720;28;19935;-65
2022/04/14 04:13:02;;;;;;;;;;;21.90;99.90;;;;;;5057721;28;19965;-66
2022/04/14 04:15:30;;;;;;;;;;;22.10;99.90;;;;;;5055641;28;19931;-64
2022/04/14 04:17:57;;;;;;;;;;;22.20;99.90;;;;;;5061831;28;19968;-65
2022/04/14 04:20:25;;;;;;;;;;;22.20;99.90;;;;;;5066530;28;19928;-65
2022/04/14 04:22:52;;;;;;;;;;;22.30;99.90;;;;;;5061275;28;19924;-65
2022/04/14 04:25:19;;;;;;;;;;;22.30;99.90;;;;;;5066438;28;19924;-65
2022/04/14 04:27:46;;;;;;;;;;;22.30;99.90;;;;;;5060307;28;19924;-65
2022/04/14 04:30:13;;;;;;;;;;;22.30;99.90;;;;;;5064301;28;19947;-64
2022/04/14 04:32:41;;;;;;;;;;;22.30;99.90;;;;;;5063221;28;20286;-64
2022/04/14 04:35:08;;;;;;;;;;;22.30;99.90;;;;;;5045878;28;19924;-63
2022/04/14 04:37:36;;;;;;;;;;;22.30;99.90;;;;;;5062037;28;19946;-64
2022/04/14 04:40:03;;;;;;;;;;;22.30;99.90;;;;;;5061274;28;19935;-64
2022/04/14 04:42:31;;;;;;;;;;;22.30;99.90;;;;;;5065816;28;20277;-66
2022/04/14 04:44:58;;;;;;;;;;;22.30;99.90;;;;;;5059254;28;19951;-65
2022/04/14 04:47:25;;;;;;;;;;;22.30;99.90;;;;;;5064221;28;19928;-64
2022/04/14 04:49:59;;;;;;;;;;;22.20;99.90;;;;;;5057330;28;19924;-64
2022/04/14 04:52:27;;;;;;;;;;;22.20;99.90;;;;;;5062279;28;19926;-64
2022/04/14 04:54:54;;;;;;;;;;;22.20;99.90;;;;;;5062784;28;19924;-64
2022/04/14 04:57:21;;;;;;;;;;;22.20;99.90;;;;;;5058822;28;19921;-65
2022/04/14 04:59:48;;;;;;;;;;;22.20;99.90;;;;;;5052318;28;20313;-64
2022/04/14 05:02:15;;;;;;;;;;;22.10;99.90;;;;;;5057282;28;19924;-65
2022/04/14 05:04:42;;;;;;;;;;;22.10;99.90;;;;;;5062009;28;19924;-64
2022/04/14 05:07:09;;;;;;;;;;;22.10;99.90;;;;;;5061535;28;19932;-63
2022/04/14 05:09:36;;;;;;;;;;;22.10;99.90;;;;;;5061779;28;19924;-65
2022/04/14 05:12:04;;;;;;;;;;;22.10;99.90;;;;;;5067508;28;20309;-61
2022/04/14 05:14:31;;;;;;;;;;;22.20;99.90;;;;;;5060219;28;20400;-64
2022/04/14 05:17:04;;;;;;;;;;;22.20;99.90;;;;;;5054503;28;19932;-64
2022/04/14 05:19:32;;;;;;;;;;;22.20;99.90;;;;;;5060936;28;20602;-64
2022/04/14 05:22:01;;;;;;;;;;;22.20;99.90;;;;;;5061199;28;19924;-65
2022/04/14 05:24:29;;;;;;;;;;;22.10;99.90;;;;;;5060427;28;19931;-62
2022/04/14 05:26:57;;;;;;;;;;;22.20;99.90;;;;;;5064778;28;20308;-65
2022/04/14 05:29:24;;;;;;;;;;;22.10;99.90;;;;;;5064151;28;19924;-63
2022/04/14 05:31:51;;;;;;;;;;;22.10;99.90;;;;;;5065709;28;20289;-62
2022/04/14 05:34:18;;;;;;;;;;;22.10;99.90;;;;;;5062334;28;19924;-59
2022/04/14 05:36:45;;;;;;;;;;;22.10;99.90;;;;;;5062488;28;19947;-58
2022/04/14 05:39:13;;;;;;;;;;;22.10;99.90;;;;;;5055723;28;19928;-59
2022/04/14 05:41:40;;;;;;;;;;;22.10;99.90;;;;;;5058503;28;19932;-61
2022/04/14 05:44:07;;;;;;;;;;;22.10;99.90;;;;;;5062143;28;19925;-60
2022/04/14 05:46:35;;;;;;;;;;;22.10;99.90;;;;;;5052926;28;19988;-63
2022/04/14 05:49:02;;;;;;;;;;;22.10;99.90;;;;;;5059887;28;19928;-61
2022/04/14 05:51:29;;;;;;;;;;;22.10;99.90;;;;;;5061839;28;19920;-61
2022/04/14 05:53:57;;;;;;;;;;;22.10;99.90;;;;;;5065108;28;19928;-62
2022/04/14 05:56:24;;;;;;;;;;;22.10;99.90;;;;;;5067335;28;19924;-64
2022/04/14 05:58:52;;;;;;;;;;;22.10;99.90;;;;;;5061062;28;19963;-63
2022/04/14 06:01:20;;;;;;;;;;;22.10;99.90;;;;;;5060631;28;20313;-64
2022/04/14 06:03:47;;;;;;;;;;;22.10;99.90;;;;;;5057948;28;19928;-65
2022/04/14 06:06:14;;;;;;;;;;;22.00;99.90;;;;;;5064914;28;19924;-62
2022/04/14 06:08:43;;;;;;;;;;;22.00;99.90;;;;;;5061272;28;19928;-62
2022/04/14 06:11:10;;;;;;;;;;;22.00;99.90;;;;;;5062160;28;20852;-64
2022/04/14 06:13:38;;;;;;;;;;;22.00;99.90;;;;;;5054835;28;19924;-64
2022/04/14 06:16:05;;;;;;;;;;;22.00;99.90;;;;;;5064149;28;19928;-63
2022/04/14 06:18:32;;;;;;;;;;;21.90;99.90;;;;;;5063564;28;19921;-56
2022/04/14 06:20:59;;;;;;;;;;;22.00;99.90;;;;;;5063727;28;19924;-59
2022/04/14 06:23:27;;;;;;;;;;;22.00;99.90;;;;;;5059628;28;20305;-58
2022/04/14 06:25:55;;;;;;;;;;;21.90;99.90;;;;;;5056146;28;19932;-56
2022/04/14 06:28:22;;;;;;;;;;;21.90;99.90;;;;;;5060949;28;20309;-59
2022/04/14 06:30:51;;;;;;;;;;;21.90;99.90;;;;;;5063622;28;19924;-57
2022/04/14 06:33:20;;;;;;;;;;;21.80;99.90;;;;;;5055495;28;19959;-60
2022/04/14 06:35:47;;;;;;;;;;;21.80;99.90;;;;;;5052866;28;19943;-60
2022/04/14 06:38:15;;;;;;;;;;;21.80;99.90;;;;;;5065399;28;19924;-57
2022/04/14 06:40:46;;;;;;;;;;;21.70;99.90;;;;;;5060680;28;19924;-59
2022/04/14 06:43:14;;;;;;;;;;;21.60;99.90;;;;;;5055811;28;19924;-58
2022/04/14 06:45:41;;;;;;;;;;;21.60;99.90;;;;;;5049376;28;19951;-58
2022/04/14 06:48:09;;;;;;;;;;;21.60;99.90;;;;;;5056857;28;19921;-57
2022/04/14 06:50:36;;;;;;;;;;;21.70;99.90;;;;;;5055258;28;19940;-57
2022/04/14 06:53:04;;;;;;;;;;;21.70;99.90;;;;;;5056162;28;20313;-58
2022/04/14 06:55:32;;;;;;;;;;;21.70;99.90;;;;;;5062543;28;20317;-61
2022/04/14 06:57:59;;;;;;;;;;;21.70;99.90;;;;;;5056485;28;19920;-58
2022/04/14 07:00:27;;;;;;;;;;;21.70;99.90;;;;;;5064664;28;19924;-56
2022/04/14 07:02:55;;;;;;;;;;;21.70;99.90;;;;;;5044214;28;19924;-58
2022/04/14 07:05:23;;;;;;;;;;;21.80;99.90;;;;;;5061726;28;20681;-57
2022/04/14 07:07:50;;;;;;;;;;;21.80;99.90;;;;;;5064871;28;19924;-57
2022/04/14 07:10:17;;;;;;;;;;;21.80;99.90;;;;;;5060618;28;19936;-55
2022/04/14 07:12:45;;;;;;;;;;;21.80;99.90;;;;;;5064011;28;20111;-59
2022/04/14 07:15:13;;;;;;;;;;;21.70;99.90;;;;;;5060529;28;20325;-57
2022/04/14 07:17:40;;;;;;;;;;;21.70;99.90;;;;;;5063216;28;19924;-58
2022/04/14 07:20:11;;;;;;;;;;;21.70;99.90;;;;;;5061714;28;19929;-58
2022/04/14 07:22:45;;;;;;;;;;;21.70;99.90;;;;;;5060973;28;19921;-61
2022/04/14 07:25:13;;;;;;;;;;;21.70;99.90;;;;;;5064836;28;19925;-61
2022/04/14 07:27:40;;;;;;;;;;;21.80;99.90;;;;;;5063245;28;19964;-61
2022/04/14 07:30:07;;;;;;;;;;;21.70;99.90;;;;;;5063655;28;19924;-62
2022/04/14 07:32:35;;;;;;;;;;;21.70;99.90;;;;;;5062536;28;20320;-59
2022/04/14 07:35:05;;;;;;;;;;;21.70;99.90;;;;;;5068073;28;20004;-61
2022/04/14 07:37:33;;;;;;;;;;;21.70;99.90;;;;;;5071572;28;19927;-61
2022/04/14 07:40:00;;;;;;;;;;;21.70;99.90;;;;;;5049529;28;19920;-61
2022/04/14 07:42:31;;;;;;;;;;;21.70;99.90;;;;;;5062048;28;19928;-60
2022/04/14 07:44:58;;;;;;;;;;;21.60;99.90;;;;;;5061015;28;19932;-59
2022/04/14 07:47:33;;;;;;;;;;;21.60;99.90;;;;;;5043379;28;20424;-59
2022/04/14 07:50:01;;;;;;;;;;;21.60;99.90;;;;;;5060353;28;19925;-60
2022/04/14 07:52:28;;;;;;;;;;;21.70;99.90;;;;;;5059862;28;20311;-59
2022/04/14 07:54:55;;;;;;;;;;;21.70;99.90;;;;;;5061363;28;19931;-58
2022/04/14 07:57:22;;;;;;;;;;;21.70;99.90;;;;;;5062394;28;19925;-60
2022/04/14 07:59:49;;;;;;;;;;;21.70;99.90;;;;;;5067826;28;19939;-60
2022/04/14 08:02:19;;;;;;;;;;;21.70;99.90;;;;;;5064906;28;19930;-62
2022/04/14 08:04:46;;;;;;;;;;;21.70;99.90;;;;;;5061921;28;19924;-61
2022/04/14 08:07:14;;;;;;;;;;;21.70;99.90;;;;;;5066361;28;20333;-61
2022/04/14 08:09:44;;;;;;;;;;;21.70;99.90;;;;;;5063776;28;19925;-56
2022/04/14 08:12:12;;;;;;;;;;;21.70;99.90;;;;;;5066132;28;19921;-58
2022/04/14 08:14:39;;;;;;;;;;;21.70;99.90;;;;;;5060300;28;19940;-63
2022/04/14 08:17:09;;;;;;;;;;;21.80;99.90;;;;;;5063691;28;19925;-65
2022/04/14 08:19:40;;;;;;;;;;;21.80;99.90;;;;;;5066945;28;19925;-55
2022/04/14 08:22:11;;;;;;;;;;;21.80;99.90;;;;;;5062179;28;20506;-58
2022/04/14 08:24:39;;;;;;;;;;;21.70;99.90;;;;;;5051142;28;19925;-58
2022/04/14 08:27:06;;;;;;;;;;;21.70;99.90;;;;;;5058443;28;19935;-57
2022/04/14 08:29:33;;;;;;;;;;;21.60;99.90;;;;;;5040350;28;19931;-58
2022/04/14 08:32:01;;;;;;;;;;;21.60;99.90;;;;;;5064020;28;19936;-59
2022/04/14 08:34:28;;;;;;;;;;;21.60;99.90;;;;;;5063937;28;19936;-58
2022/04/14 08:36:56;;;;;;;;;;;21.60;99.90;;;;;;5044065;28;19931;-57
2022/04/14 08:39:23;;;;;;;;;;;21.60;99.90;;;;;;5058567;28;19931;-57
2022/04/14 08:41:54;;;;;;;;;;;21.50;99.90;;;;;;5059921;28;19944;-55
2022/04/14 08:44:27;;;;;;;;;;;21.50;99.90;;;;;;5064905;28;20407;-59
2022/04/14 08:46:54;;;;;;;;;;;21.50;99.90;;;;;;5046516;28;19924;-58
2022/04/14 08:49:22;;;;;;;;;;;21.50;99.90;;;;;;5067413;28;20002;-57
2022/04/14 08:51:50;;;;;;;;;;;21.50;99.90;;;;;;5059579;28;19924;-58
2022/04/14 08:54:19;;;;;;;;;;;21.40;99.90;;;;;;5068240;28;19920;-57
2022/04/14 08:56:47;;;;;;;;;;;21.50;99.90;;;;;;5065058;28;19932;-58
2022/04/14 08:59:16;;;;;;;;;;;21.40;99.90;;;;;;5062154;28;19932;-59
2022/04/14 09:01:44;;;;;;;;;;;21.40;99.90;;;;;;5053889;28;19929;-60
2022/04/14 09:04:11;;;;;;;;;;;21.50;99.90;;;;;;5060708;28;19920;-64
2022/04/14 09:06:39;;;;;;;;;;;21.50;99.90;;;;;;5061865;28;19929;-63
2022/04/14 09:09:06;;;;;;;;;;;21.50;99.90;;;;;;5069020;28;19921;-62
2022/04/14 09:11:33;;;;;;;;;;;21.50;99.90;;;;;;5057328;28;19920;-61
2022/04/14 09:14:01;;;;;;;;;;;21.50;99.90;;;;;;5056120;28;19924;-63
2022/04/14 09:16:30;;;;;;;;;;;21.50;99.90;;;;;;5050157;28;19959;-59
2022/04/14 09:18:59;;;;;;;;;;;21.50;99.90;;;;;;5061037;28;19928;-59
2022/04/14 09:21:27;;;;;;;;;;;21.50;99.90;;;;;;5046718;28;20405;-62
2022/04/14 09:23:54;;;;;;;;;;;21.60;99.90;;;;;;5055315;28;19924;-61
2022/04/14 09:26:25;;;;;;;;;;;21.50;99.90;;;;;;5050286;28;19932;-62
2022/04/14 09:29:20;;;;;;;;;;;21.60;99.90;;;;;;5057126;28;19924;-60
2022/04/14 09:31:50;;;;;;;;;;;21.60;99.90;;;;;;5059173;28;19931;-57
2022/04/14 09:34:38;;;;;;;;;;;21.50;99.90;;;;;;5063975;28;19920;-61
2022/04/14 09:37:08;;;;;;;;;;;21.50;99.90;;;;;;5054846;28;19927;-60
2022/04/14 09:39:55;;;;;;;;;;;21.50;99.90;;;;;;5053356;28;19920;-60
2022/04/14 09:42:23;;;;;;;;;;;21.50;99.90;;;;;;5052458;28;19932;-60
2022/04/14 09:44:53;;;;;;;;;;;21.40;99.90;;;;;;5053566;28;19920;-60
2022/04/14 09:47:23;;;;;;;;;;;21.40;99.90;;;;;;5069060;28;19920;-60
2022/04/14 09:49:50;;;;;;;;;;;21.40;99.90;;;;;;5063714;28;19921;-62
2022/04/14 09:52:18;;;;;;;;;;;21.40;99.90;;;;;;5060018;28;19939;-59
2022/04/14 09:54:46;;;;;;;;;;;21.50;99.90;;;;;;5050167;28;20401;-61
2022/04/14 09:57:13;;;;;;;;;;;21.50;99.90;;;;;;5045354;28;19925;-60
2022/04/14 09:59:41;;;;;;;;;;;21.50;99.90;;;;;;5057924;28;19931;-60
2022/04/14 10:02:12;;;;;;;;;;;21.50;99.90;;;;;;5061171;28;19925;-59
2022/04/14 10:04:41;;;;;;;;;;;21.50;99.90;;;;;;5060921;28;20023;-60
2022/04/14 10:07:08;;;;;;;;;;;21.50;99.90;;;;;;5030020;28;20405;-59
2022/04/14 10:09:38;;;;;;;;;;;21.50;99.90;;;;;;5048444;28;20393;-58
2022/04/14 10:12:26;;;;;;;;;;;21.50;99.90;;;;;;5057310;28;20079;-63
2022/04/14 10:14:56;;;;;;;;;;;21.50;99.90;;;;;;5052077;28;20269;-64
2022/04/14 10:17:27;;;;;;;;;;;21.60;99.90;;;;;;5051066;28;19924;-63
2022/04/14 10:19:54;;;;;;;;;;;21.60;99.90;;;;;;5058580;28;20301;-64
2022/04/14 10:22:23;;;;;;;;;;;21.60;99.90;;;;;;5047842;28;19925;-62
2022/04/14 10:24:51;;;;;;;;;;;21.60;99.80;;;;;;5055523;28;19920;-62
2022/04/14 10:27:19;;;;;;;;;;;21.60;99.70;;;;;;5050647;28;19935;-61
2022/04/14 10:29:47;;;;;;;;;;;21.70;99.60;;;;;;5055676;28;19924;-59
2022/04/14 10:32:14;;;;;;;;;;;21.60;99.20;;;;;;5048801;28;19925;-57
2022/04/14 10:34:41;;;;;;;;;;;21.70;99.20;;;;;;5063248;28;19928;-61
2022/04/14 10:37:10;;;;;;;;;;;21.60;99.30;;;;;;5051816;28;20412;-61
2022/04/14 10:39:43;;;;;;;;;;;21.60;99.10;;;;;;5055130;28;19924;-58
2022/04/14 10:42:11;;;;;;;;;;;21.60;99.00;;;;;;5053336;28;19924;-60
2022/04/14 10:44:51;;;;;;;;;;;21.60;99.00;;;;;;5067095;28;20386;-60
2022/04/14 10:47:37;;;;;;;;;;;21.60;98.80;;;;;;5060507;28;19924;-60
2022/04/14 10:50:17;;;;;;;;;;;21.70;98.90;;;;;;5066407;28;19972;-58
2022/04/14 10:53:06;;;;;;;;;;;21.60;98.80;;;;;;5063052;28;19921;-58
2022/04/14 10:55:43;;;;;;;;;;;21.60;98.70;;;;;;5055312;28;19931;-58
2022/04/14 10:58:29;;;;;;;;;;;21.60;98.40;;;;;;5053741;28;19932;-56
2022/04/14 11:00:56;;;;;;;;;;;21.60;98.20;;;;;;5057266;28;19932;-60
2022/04/14 11:03:43;;;;;;;;;;;21.60;98.20;;;;;;5049509;28;19929;-62
2022/04/14 11:06:30;;;;;;;;;;;21.60;98.40;;;;;;5056056;28;19925;-60
2022/04/14 11:08:57;;;;;;;;;;;21.60;98.40;;;;;;5057266;28;20405;-61
2022/04/14 11:11:24;;;;;;;;;;;21.60;98.70;;;;;;5058914;28;19924;-58
2022/04/14 11:13:52;;;;;;;;;;;21.70;98.80;;;;;;5052173;28;19924;-59
2022/04/14 11:16:38;;;;;;;;;;;21.70;99.00;;;;;;5057645;28;19959;-60
2022/04/14 11:19:17;;;;;;;;;;;21.70;99.20;;;;;;5051602;28;19930;-61
2022/04/14 11:24:36;;;;;;;;;;;21.80;99.40;;;;;;5059559;28;20015;-61
2022/04/14 11:27:09;;;;;;;;;;;21.80;99.50;;;;;;5059604;28;19929;-59
2022/04/14 11:29:37;;;;;;;;;;;21.90;99.90;;;;;;5055094;28;19920;-60
2022/04/14 11:32:05;;;;;;;;;;;21.90;99.90;;;;;;5066226;28;19931;-60
2022/04/14 11:34:36;;;;;;;;;;;22.00;99.90;;;;;;5054246;28;20439;-59
2022/04/14 11:37:03;;;;;;;;;;;22.00;99.90;;;;;;5051710;28;19928;-60
2022/04/14 11:39:32;;;;;;;;;;;22.00;99.90;;;;;;5074609;28;19939;-61
2022/04/14 11:42:06;;;;;;;;;;;22.10;99.90;;;;;;5064909;28;19924;-60
2022/04/14 11:44:35;;;;;;;;;;;22.10;99.90;;;;;;5054636;28;20212;-61
2022/04/14 11:47:04;;;;;;;;;;;22.10;99.90;;;;;;5060994;28;19920;-61
2022/04/14 11:49:32;;;;;;;;;;;22.10;99.90;;;;;;5056963;28;20423;-63
2022/04/14 11:52:01;;;;;;;;;;;22.10;99.90;;;;;;5058058;28;19927;-63
2022/04/14 11:54:30;;;;;;;;;;;22.10;99.90;;;;;;5051300;28;20400;-59
2022/04/14 11:57:12;;;;;;;;;;;22.10;99.90;;;;;;5066971;28;19925;-60
2022/04/14 11:59:44;;;;;;;;;;;22.10;99.90;;;;;;5057232;28;19935;-62
2022/04/14 12:02:11;;;;;;;;;;;22.10;99.90;;;;;;5063862;28;19920;-59
2022/04/14 12:04:40;;;;;;;;;;;22.00;99.90;;;;;;5059932;28;19931;-60
2022/04/14 12:07:08;;;;;;;;;;;22.10;99.90;;;;;;5057718;28;19928;-59
2022/04/14 12:09:37;;;;;;;;;;;22.10;99.90;;;;;;5067783;28;19927;-58
2022/04/14 12:12:12;;;;;;;;;;;22.10;99.90;;;;;;5056976;28;19947;-60
2022/04/14 12:14:40;;;;;;;;;;;22.10;99.90;;;;;;5054463;28;19931;-62
2022/04/14 12:17:07;;;;;;;;;;;22.20;99.90;;;;;;5061545;28;19996;-61
2022/04/14 12:19:43;;;;;;;;;;;22.20;99.90;;;;;;5060002;28;19947;-56
2022/04/14 12:22:11;;;;;;;;;;;22.20;99.90;;;;;;5055919;28;19929;-55
2022/04/14 12:24:38;;;;;;;;;;;22.30;99.90;;;;;;5061606;28;20375;-54
2022/04/14 12:27:06;;;;;;;;;;;22.30;99.90;;;;;;5058885;28;20382;-55
2022/04/14 12:29:33;;;;;;;;;;;22.30;99.90;;;;;;5055492;28;19932;-59
2022/04/14 12:32:11;;;;;;;;;;;22.30;99.90;;;;;;5064791;28;20035;-56
2022/04/14 12:34:42;;;;;;;;;;;22.30;99.90;;;;;;5062013;28;19925;-56
2022/04/14 12:37:13;;;;;;;;;;;22.30;99.90;;;;;;5061543;28;20385;-56
2022/04/14 12:40:13;;;;;;;;;;;22.20;99.90;;;;;;5061804;28;19924;-55
2022/04/14 12:42:41;;;;;;;;;;;22.20;99.90;;;;;;5012833;28;19928;-59
2022/04/14 12:45:09;;;;;;;;;;;22.20;99.90;;;;;;5061944;28;20679;-58
2022/04/14 12:47:39;;;;;;;;;;;22.20;99.90;;;;;;5062258;28;19936;-58
2022/04/14 12:50:06;;;;;;;;;;;22.30;99.90;;;;;;5054516;28;20028;-55
2022/04/14 12:52:34;;;;;;;;;;;22.30;99.90;;;;;;5065477;28;19925;-57
2022/04/14 12:55:01;;;;;;;;;;;22.30;99.90;;;;;;5041329;28;19975;-58
2022/04/14 12:57:30;;;;;;;;;;;22.30;99.90;;;;;;5051527;28;19930;-58
2022/04/14 12:59:59;;;;;;;;;;;22.30;99.90;;;;;;5046973;28;19924;-53
2022/04/14 13:02:26;;;;;;;;;;;22.30;99.90;;;;;;5056015;28;19931;-59
2022/04/14 13:05:04;;;;;;;;;;;22.30;99.90;;;;;;5056410;28;19931;-60
2022/04/14 13:07:43;;;;;;;;;;;22.30;99.90;;;;;;5056591;28;19928;-57
2022/04/14 13:10:10;;;;;;;;;;;22.30;99.90;;;;;;5061297;28;19924;-56
2022/04/14 13:12:37;;;;;;;;;;;22.30;99.90;;;;;;5052312;28;19932;-57
2022/04/14 13:15:05;;;;;;;;;;;22.30;99.90;;;;;;5054008;28;19924;-60
2022/04/14 13:17:36;;;;;;;;;;;22.30;99.90;;;;;;5060260;28;20393;-56
2022/04/14 13:20:11;;;;;;;;;;;22.30;99.90;;;;;;5046423;28;20420;-60
2022/04/14 13:22:39;;;;;;;;;;;22.30;99.90;;;;;;5053380;28;20347;-55
2022/04/14 13:25:06;;;;;;;;;;;22.30;99.90;;;;;;5062339;28;19924;-59
2022/04/14 13:27:34;;;;;;;;;;;22.30;99.90;;;;;;5052098;28;19925;-56
2022/04/14 13:30:02;;;;;;;;;;;22.30;99.90;;;;;;5067266;28;19928;-60
2022/04/14 13:32:29;;;;;;;;;;;22.30;99.90;;;;;;5064336;28;19924;-56
2022/04/14 13:34:56;;;;;;;;;;;22.30;99.90;;;;;;5063801;28;19928;-57
2022/04/14 13:37:24;;;;;;;;;;;22.30;99.90;;;;;;5052506;28;20413;-59
2022/04/14 13:39:51;;;;;;;;;;;22.40;99.90;;;;;;5050308;28;19924;-54
2022/04/14 13:42:18;;;;;;;;;;;22.40;99.90;;;;;;5054129;28;19925;-59
2022/04/14 13:44:46;;;;;;;;;;;22.40;99.90;;;;;;5054565;28;19931;-57
2022/04/14 13:47:13;;;;;;;;;;;22.40;99.90;;;;;;5059305;28;19924;-55
2022/04/14 13:49:40;;;;;;;;;;;22.40;99.90;;;;;;5034363;28;19932;-58
2022/04/14 13:52:07;;;;;;;;;;;22.40;99.90;;;;;;5045203;28;19943;-57
2022/04/14 13:54:34;;;;;;;;;;;22.40;99.90;;;;;;5058052;28;19965;-62
2022/04/14 13:57:02;;;;;;;;;;;22.40;99.90;;;;;;5064972;28;19928;-58
2022/04/14 13:59:29;;;;;;;;;;;22.40;99.90;;;;;;5056416;28;19924;-60
2022/04/14 14:01:57;;;;;;;;;;;22.40;99.90;;;;;;5066415;28;19924;-64
2022/04/14 14:04:25;;;;;;;;;;;22.40;99.90;;;;;;5062545;28;19925;-52
2022/04/14 14:06:52;;;;;;;;;;;22.40;99.90;;;;;;5061807;28;19928;-60
2022/04/14 14:09:19;;;;;;;;;;;22.30;99.90;;;;;;5050696;28;20297;-59
2022/04/14 14:11:46;;;;;;;;;;;22.30;99.90;;;;;;5050740;28;19924;-61
2022/04/14 14:14:13;;;;;;;;;;;22.30;99.90;;;;;;5046349;28;19924;-63
2022/04/14 14:16:41;;;;;;;;;;;22.30;99.90;;;;;;5066554;28;19923;-64
2022/04/14 14:19:08;;;;;;;;;;;22.30;99.90;;;;;;5055486;28;19925;-57
2022/04/14 14:21:35;;;;;;;;;;;22.30;99.90;;;;;;5057312;28;19921;-58
2022/04/14 14:24:03;;;;;;;;;;;22.30;99.90;;;;;;5051397;28;19940;-64
2022/04/14 14:26:30;;;;;;;;;;;22.30;99.90;;;;;;5054656;28;19927;-64
2022/04/14 14:28:57;;;;;;;;;;;22.30;99.90;;;;;;5048583;28;19943;-66